sensor_id;sensor_type;location;lat;lon;timestamp;pressure;altitude;pressure_sealevel;temperature;humidity
19761;BME280;10039;42.632;23.408;2023-04-01T00:01:00;94128.94;;;11.02;60.86
19761;BME280;10039;42.632;23.408;2023-04-01T00:03:26;94147.84;;;11.07;61.53
19761;BME280;10039;42.632;23.408;2023-04-01T00:05:56;94127.38;;;10.70;61.46
19761;BME280;10039;42.632;23.408;2023-04-01T00:08:23;94125.31;;;10.74;61.26
19761;BME280;10039;42.632;23.408;2023-04-01T00:10:49;94132.84;;;10.88;60.95
19761;BME280;10039;42.632;23.408;2023-04-01T00:13:15;94130.75;;;10.83;61.10
19761;BME280;10039;42.632;23.408;2023-04-01T00:15:42;94148.22;;;10.97;61.15
19761;BME280;10039;42.632;23.408;2023-04-01T00:18:07;94150.16;;;11.17;60.58
19761;BME280;10039;42.632;23.408;2023-04-01T00:20:34;94152.28;;;11.22;60.50
19761;BME280;10039;42.632;23.408;2023-04-01T00:23:00;94105.50;;;10.97;60.11
19761;BME280;10039;42.632;23.408;2023-04-01T00:25:25;94161.47;;;11.43;59.67
19761;BME280;10039;42.632;23.408;2023-04-01T00:27:51;94159.53;;;11.43;59.69
19761;BME280;10039;42.632;23.408;2023-04-01T00:30:17;94136.59;;;11.33;59.14
19761;BME280;10039;42.632;23.408;2023-04-01T00:32:43;94154.94;;;11.44;59.46
19761;BME280;10039;42.632;23.408;2023-04-01T00:35:09;94098.66;;;10.96;60.31
19761;BME280;10039;42.632;23.408;2023-04-01T00:37:37;94113.81;;;10.99;60.38
19761;BME280;10039;42.632;23.408;2023-04-01T00:40:06;94163.19;;;11.15;60.45
19761;BME280;10039;42.632;23.408;2023-04-01T00:42:32;94113.69;;;11.02;60.24
19761;BME280;10039;42.632;23.408;2023-04-01T00:44:58;94122.25;;;10.97;60.66
19761;BME280;10039;42.632;23.408;2023-04-01T00:47:44;94141.75;;;11.07;60.77
19761;BME280;10039;42.632;23.408;2023-04-01T00:50:09;94107.22;;;10.91;61.64
19761;BME280;10039;42.632;23.408;2023-04-01T00:52:35;94098.91;;;10.89;61.77
19761;BME280;10039;42.632;23.408;2023-04-01T00:55:02;94106.69;;;10.96;61.14
19761;BME280;10039;42.632;23.408;2023-04-01T00:57:34;94086.75;;;10.88;61.81
19761;BME280;10039;42.632;23.408;2023-04-01T01:00:04;94063.31;;;10.70;62.79
19761;BME280;10039;42.632;23.408;2023-04-01T01:02:33;94111.50;;;11.10;61.81
19761;BME280;10039;42.632;23.408;2023-04-01T01:05:00;94080.78;;;10.84;63.17
19761;BME280;10039;42.632;23.408;2023-04-01T01:10:18;94092.81;;;10.88;61.91
19761;BME280;10039;42.632;23.408;2023-04-01T01:13:11;94067.75;;;10.86;62.54
19761;BME280;10039;42.632;23.408;2023-04-01T01:21:29;94064.13;;;10.80;62.87
19761;BME280;10039;42.632;23.408;2023-04-01T01:32:07;94073.81;;;10.65;61.15
19761;BME280;10039;42.632;23.408;2023-04-01T01:37:12;94026.91;;;10.76;60.17
19761;BME280;10039;42.632;23.408;2023-04-01T01:39:42;93996.75;;;10.67;60.81
19761;BME280;10039;42.632;23.408;2023-04-01T01:42:13;94007.66;;;10.60;60.60
19761;BME280;10039;42.632;23.408;2023-04-01T01:44:41;94010.88;;;10.76;60.25
19761;BME280;10039;42.632;23.408;2023-04-01T01:47:08;93981.72;;;10.60;59.29
19761;BME280;10039;42.632;23.408;2023-04-01T01:49:35;93982.41;;;10.73;59.56
19761;BME280;10039;42.632;23.408;2023-04-01T01:52:02;94034.31;;;11.03;59.05
19761;BME280;10039;42.632;23.408;2023-04-01T01:54:28;94026.00;;;11.01;59.44
19761;BME280;10039;42.632;23.408;2023-04-01T01:57:06;93998.97;;;10.90;59.24
19761;BME280;10039;42.632;23.408;2023-04-01T01:59:34;94019.00;;;11.15;58.92
19761;BME280;10039;42.632;23.408;2023-04-01T02:02:02;94038.63;;;11.00;59.82
19761;BME280;10039;42.632;23.408;2023-04-01T02:04:38;94002.03;;;11.10;60.14
19761;BME280;10039;42.632;23.408;2023-04-01T02:07:11;93974.94;;;10.90;59.74
19761;BME280;10039;42.632;23.408;2023-04-01T02:09:39;93984.06;;;11.01;59.93
19761;BME280;10039;42.632;23.408;2023-04-01T02:12:08;94008.63;;;11.17;59.64
19761;BME280;10039;42.632;23.408;2023-04-01T02:15:05;94004.53;;;11.34;59.61
19761;BME280;10039;42.632;23.408;2023-04-01T02:17:33;93998.88;;;11.32;59.56
19761;BME280;10039;42.632;23.408;2023-04-01T02:20:07;94001.00;;;11.37;59.39
19761;BME280;10039;42.632;23.408;2023-04-01T02:22:38;93981.50;;;11.28;58.82
19761;BME280;10039;42.632;23.408;2023-04-01T02:25:19;93954.03;;;11.18;58.53
19761;BME280;10039;42.632;23.408;2023-04-01T02:27:46;93954.19;;;11.24;58.91
19761;BME280;10039;42.632;23.408;2023-04-01T02:30:14;93979.00;;;11.33;59.34
19761;BME280;10039;42.632;23.408;2023-04-01T02:32:40;93954.84;;;11.07;59.67
19761;BME280;10039;42.632;23.408;2023-04-01T02:35:09;93969.47;;;11.23;59.62
19761;BME280;10039;42.632;23.408;2023-04-01T02:37:37;93977.03;;;11.25;59.51
19761;BME280;10039;42.632;23.408;2023-04-01T02:40:05;93964.63;;;11.31;58.97
19761;BME280;10039;42.632;23.408;2023-04-01T02:42:34;93962.97;;;11.33;58.71
19761;BME280;10039;42.632;23.408;2023-04-01T02:45:00;93961.31;;;11.27;58.92
19761;BME280;10039;42.632;23.408;2023-04-01T02:47:26;93972.53;;;11.43;58.89
19761;BME280;10039;42.632;23.408;2023-04-01T02:49:52;93991.94;;;11.35;59.26
19761;BME280;10039;42.632;23.408;2023-04-01T02:52:26;93976.13;;;11.19;58.95
19761;BME280;10039;42.632;23.408;2023-04-01T02:54:52;93946.63;;;11.22;57.91
19761;BME280;10039;42.632;23.408;2023-04-01T02:57:18;93998.38;;;11.46;57.84
19761;BME280;10039;42.632;23.408;2023-04-01T02:59:44;94034.34;;;11.54;58.99
19761;BME280;10039;42.632;23.408;2023-04-01T03:02:09;94012.38;;;11.29;59.28
19761;BME280;10039;42.632;23.408;2023-04-01T03:04:35;94034.75;;;11.53;59.03
19761;BME280;10039;42.632;23.408;2023-04-01T03:07:01;93993.13;;;11.34;59.11
19761;BME280;10039;42.632;23.408;2023-04-01T03:09:27;94039.06;;;11.50;59.18
19761;BME280;10039;42.632;23.408;2023-04-01T03:11:54;94019.38;;;11.35;59.25
19761;BME280;10039;42.632;23.408;2023-04-01T03:14:20;94017.94;;;11.43;59.13
19761;BME280;10039;42.632;23.408;2023-04-01T03:16:46;94036.75;;;11.61;59.22
19761;BME280;10039;42.632;23.408;2023-04-01T03:19:11;94040.06;;;11.44;59.64
19761;BME280;10039;42.632;23.408;2023-04-01T03:21:37;94051.19;;;11.42;60.16
19761;BME280;10039;42.632;23.408;2023-04-01T03:24:03;94038.06;;;11.26;60.57
19761;BME280;10039;42.632;23.408;2023-04-01T03:26:29;93996.78;;;10.76;61.55
19761;BME280;10039;42.632;23.408;2023-04-01T03:28:55;94023.72;;;10.90;60.66
19761;BME280;10039;42.632;23.408;2023-04-01T03:31:21;93985.69;;;10.77;61.11
19761;BME280;10039;42.632;23.408;2023-04-01T03:33:47;93993.88;;;10.83;61.13
19761;BME280;10039;42.632;23.408;2023-04-01T03:36:13;94012.31;;;11.11;60.34
19761;BME280;10039;42.632;23.408;2023-04-01T03:38:40;94021.72;;;11.24;60.32
19761;BME280;10039;42.632;23.408;2023-04-01T03:41:07;94008.25;;;11.07;59.62
19761;BME280;10039;42.632;23.408;2023-04-01T03:43:33;94028.56;;;11.34;59.65
19761;BME280;10039;42.632;23.408;2023-04-01T03:45:58;94025.34;;;11.39;59.84
19761;BME280;10039;42.632;23.408;2023-04-01T03:48:25;94029.53;;;11.49;59.86
19761;BME280;10039;42.632;23.408;2023-04-01T03:50:51;94027.81;;;11.55;59.58
19761;BME280;10039;42.632;23.408;2023-04-01T03:53:17;94033.19;;;11.64;59.88
19761;BME280;10039;42.632;23.408;2023-04-01T03:55:43;94019.09;;;11.64;60.17
19761;BME280;10039;42.632;23.408;2023-04-01T03:58:09;94013.00;;;11.63;59.94
19761;BME280;10039;42.632;23.408;2023-04-01T04:00:35;94005.34;;;11.53;58.34
19761;BME280;10039;42.632;23.408;2023-04-01T04:03:00;93960.97;;;11.46;58.98
19761;BME280;10039;42.632;23.408;2023-04-01T04:05:27;93938.06;;;11.27;59.15
19761;BME280;10039;42.632;23.408;2023-04-01T04:07:53;93941.53;;;11.46;58.76
19761;BME280;10039;42.632;23.408;2023-04-01T04:10:19;93963.13;;;11.60;59.40
19761;BME280;10039;42.632;23.408;2023-04-01T04:12:45;93895.59;;;11.20;59.61
19761;BME280;10039;42.632;23.408;2023-04-01T04:15:12;93949.09;;;11.47;59.38
19761;BME280;10039;42.632;23.408;2023-04-01T04:17:38;93915.19;;;11.35;59.30
19761;BME280;10039;42.632;23.408;2023-04-01T04:20:04;93917.94;;;11.53;59.01
19761;BME280;10039;42.632;23.408;2023-04-01T04:22:30;93926.28;;;11.55;58.70
19761;BME280;10039;42.632;23.408;2023-04-01T04:24:55;93901.00;;;11.47;58.21
19761;BME280;10039;42.632;23.408;2023-04-01T04:27:21;93855.47;;;11.03;58.09
19761;BME280;10039;42.632;23.408;2023-04-01T04:29:47;93887.53;;;11.12;58.19
19761;BME280;10039;42.632;23.408;2023-04-01T04:32:12;93872.56;;;11.14;58.68
19761;BME280;10039;42.632;23.408;2023-04-01T04:34:38;93862.94;;;11.16;58.44
19761;BME280;10039;42.632;23.408;2023-04-01T04:37:04;93862.97;;;11.34;57.72
19761;BME280;10039;42.632;23.408;2023-04-01T04:39:30;93877.09;;;11.44;57.86
19761;BME280;10039;42.632;23.408;2023-04-01T04:41:55;93852.47;;;11.40;57.60
19761;BME280;10039;42.632;23.408;2023-04-01T04:44:22;93857.69;;;11.52;56.81
19761;BME280;10039;42.632;23.408;2023-04-01T04:46:48;93845.69;;;11.57;56.78
19761;BME280;10039;42.632;23.408;2023-04-01T04:49:13;93833.31;;;11.50;56.29
19761;BME280;10039;42.632;23.408;2023-04-01T04:51:39;93855.06;;;11.61;56.33
19761;BME280;10039;42.632;23.408;2023-04-01T04:54:06;93810.13;;;11.20;57.25
19761;BME280;10039;42.632;23.408;2023-04-01T04:56:32;93811.19;;;11.32;57.42
19761;BME280;10039;42.632;23.408;2023-04-01T04:58:58;93841.22;;;11.63;57.49
19761;BME280;10039;42.632;23.408;2023-04-01T05:01:24;93848.22;;;11.87;57.13
19761;BME280;10039;42.632;23.408;2023-04-01T05:03:50;93824.91;;;11.70;56.01
19761;BME280;10039;42.632;23.408;2023-04-01T05:06:17;93851.81;;;11.93;56.09
19761;BME280;10039;42.632;23.408;2023-04-01T05:08:58;93813.47;;;11.69;55.42
19761;BME280;10039;42.632;23.408;2023-04-01T05:11:23;93814.94;;;11.70;55.84
19761;BME280;10039;42.632;23.408;2023-04-01T05:13:53;93822.69;;;11.86;55.64
19761;BME280;10039;42.632;23.408;2023-04-01T05:16:20;93844.94;;;12.01;55.77
19761;BME280;10039;42.632;23.408;2023-04-01T05:18:47;93820.31;;;11.79;55.64
19761;BME280;10039;42.632;23.408;2023-04-01T05:21:14;93828.63;;;11.81;56.24
19761;BME280;10039;42.632;23.408;2023-04-01T05:23:41;93831.91;;;11.94;56.70
19761;BME280;10039;42.632;23.408;2023-04-01T05:26:10;93780.06;;;11.65;56.06
19761;BME280;10039;42.632;23.408;2023-04-01T05:28:36;93814.66;;;11.77;56.58
19761;BME280;10039;42.632;23.408;2023-04-01T05:31:04;93809.03;;;11.57;57.26
19761;BME280;10039;42.632;23.408;2023-04-01T05:33:30;93806.34;;;11.75;56.94
19761;BME280;10039;42.632;23.408;2023-04-01T05:35:57;93814.06;;;11.91;57.28
19761;BME280;10039;42.632;23.408;2023-04-01T05:38:30;93798.16;;;11.88;56.26
19761;BME280;10039;42.632;23.408;2023-04-01T05:41:00;93779.31;;;11.82;56.30
19761;BME280;10039;42.632;23.408;2023-04-01T05:43:26;93818.19;;;12.01;56.15
19761;BME280;10039;42.632;23.408;2023-04-01T05:45:51;93798.59;;;12.13;55.82
19761;BME280;10039;42.632;23.408;2023-04-01T05:48:17;93838.06;;;12.36;55.77
19761;BME280;10039;42.632;23.408;2023-04-01T05:50:43;93805.47;;;12.46;55.67
19761;BME280;10039;42.632;23.408;2023-04-01T05:53:08;93782.22;;;12.20;56.50
19761;BME280;10039;42.632;23.408;2023-04-01T05:55:35;93787.41;;;12.24;55.81
19761;BME280;10039;42.632;23.408;2023-04-01T05:58:01;93790.78;;;12.51;55.34
19761;BME280;10039;42.632;23.408;2023-04-01T06:00:27;93794.56;;;12.68;54.75
19761;BME280;10039;42.632;23.408;2023-04-01T06:02:53;93786.31;;;12.80;54.04
19761;BME280;10039;42.632;23.408;2023-04-01T06:05:24;93766.81;;;12.89;54.35
19761;BME280;10039;42.632;23.408;2023-04-01T06:07:57;93783.34;;;13.20;53.61
19761;BME280;10039;42.632;23.408;2023-04-01T06:10:58;93790.72;;;13.25;53.48
19761;BME280;10039;42.632;23.408;2023-04-01T06:19:08;93796.75;;;13.57;52.89
19761;BME280;10039;42.632;23.408;2023-04-01T06:44:17;93789.25;;;13.47;53.82
19761;BME280;10039;42.632;23.408;2023-04-01T06:46:59;93773.78;;;13.42;54.42
19761;BME280;10039;42.632;23.408;2023-04-01T06:52:12;93764.31;;;13.55;53.93
19761;BME280;10039;42.632;23.408;2023-04-01T06:54:49;93767.00;;;13.55;54.32
19761;BME280;10039;42.632;23.408;2023-04-01T06:57:31;93764.47;;;13.75;53.66
19761;BME280;10039;42.632;23.408;2023-04-01T07:00:01;93728.84;;;13.60;54.27
19761;BME280;10039;42.632;23.408;2023-04-01T07:02:41;93747.88;;;13.62;55.09
19761;BME280;10039;42.632;23.408;2023-04-01T07:05:07;93683.44;;;13.43;54.79
19761;BME280;10039;42.632;23.408;2023-04-01T07:08:04;93744.94;;;13.75;55.09
19761;BME280;10039;42.632;23.408;2023-04-01T07:13:20;93711.66;;;13.67;55.48
19761;BME280;10039;42.632;23.408;2023-04-01T07:15:58;93732.38;;;13.95;54.84
19761;BME280;10039;42.632;23.408;2023-04-01T07:18:37;93704.09;;;13.80;54.84
19761;BME280;10039;42.632;23.408;2023-04-01T07:21:13;93707.88;;;13.88;55.05
19761;BME280;10039;42.632;23.408;2023-04-01T07:23:44;93722.25;;;14.14;54.81
19761;BME280;10039;42.632;23.408;2023-04-01T07:26:23;93712.34;;;14.20;54.83
19761;BME280;10039;42.632;23.408;2023-04-01T07:28:51;93733.44;;;14.12;55.10
19761;BME280;10039;42.632;23.408;2023-04-01T07:34:28;93710.00;;;13.84;56.27
19761;BME280;10039;42.632;23.408;2023-04-01T07:40:03;93716.41;;;14.01;56.61
19761;BME280;10039;42.632;23.408;2023-04-01T07:45:38;93701.59;;;14.05;56.40
19761;BME280;10039;42.632;23.408;2023-04-01T07:48:28;93730.56;;;14.30;55.74
19761;BME280;10039;42.632;23.408;2023-04-01T08:02:40;93723.72;;;14.29;56.17
19761;BME280;10039;42.632;23.408;2023-04-01T08:08:09;93716.84;;;14.43;55.84
19761;BME280;10039;42.632;23.408;2023-04-01T08:10:49;93700.38;;;14.50;55.40
19761;BME280;10039;42.632;23.408;2023-04-01T08:19:49;93710.56;;;14.31;56.27
19761;BME280;10039;42.632;23.408;2023-04-01T08:22:13;93658.47;;;14.09;56.21
19761;BME280;10039;42.632;23.408;2023-04-01T08:24:45;93713.06;;;14.49;55.89
19761;BME280;10039;42.632;23.408;2023-04-01T08:32:39;93659.59;;;14.65;55.57
19761;BME280;10039;42.632;23.408;2023-04-01T08:37:41;93632.94;;;14.82;54.91
19761;BME280;10039;42.632;23.408;2023-04-01T08:42:55;93645.63;;;14.81;54.89
19761;BME280;10039;42.632;23.408;2023-04-01T08:45:42;93621.69;;;14.78;55.26
19761;BME280;10039;42.632;23.408;2023-04-01T08:51:26;93586.53;;;14.81;54.33
19761;BME280;10039;42.632;23.408;2023-04-01T08:59:49;93570.91;;;14.80;54.71
19761;BME280;10039;42.632;23.408;2023-04-01T09:11:08;93566.75;;;15.04;53.33
19761;BME280;10039;42.632;23.408;2023-04-01T09:17:14;93617.25;;;15.40;51.48
19761;BME280;10039;42.632;23.408;2023-04-01T09:20:26;93620.34;;;15.53;51.57
19761;BME280;10039;42.632;23.408;2023-04-01T09:26:08;93610.94;;;15.69;49.40
19761;BME280;10039;42.632;23.408;2023-04-01T09:40:14;93580.66;;;16.04;47.88
19761;BME280;10039;42.632;23.408;2023-04-01T09:43:02;93584.78;;;16.00;47.70
19761;BME280;10039;42.632;23.408;2023-04-01T09:51:03;93581.63;;;16.01;48.75
19761;BME280;10039;42.632;23.408;2023-04-01T09:56:40;93572.38;;;16.13;48.77
19761;BME280;10039;42.632;23.408;2023-04-01T10:05:30;93549.09;;;16.05;49.26
19761;BME280;10039;42.632;23.408;2023-04-01T10:11:15;93549.31;;;16.01;50.12
19761;BME280;10039;42.632;23.408;2023-04-01T10:14:13;93539.53;;;16.04;50.23
19761;BME280;10039;42.632;23.408;2023-04-01T10:17:15;93508.16;;;15.90;50.03
19761;BME280;10039;42.632;23.408;2023-04-01T10:22:30;93533.59;;;15.94;50.24
19761;BME280;10039;42.632;23.408;2023-04-01T10:52:24;93494.03;;;16.00;48.82
19761;BME280;10039;42.632;23.408;2023-04-01T11:09:22;93488.50;;;16.20;48.93
19761;BME280;10039;42.632;23.408;2023-04-01T11:29:09;93452.69;;;16.56;42.96
19761;BME280;10039;42.632;23.408;2023-04-01T11:31:54;93436.72;;;16.36;44.25
19761;BME280;10039;42.632;23.408;2023-04-01T11:43:29;93518.53;;;16.50;43.25
19761;BME280;10039;42.632;23.408;2023-04-01T11:46:12;93547.00;;;16.25;45.02
19761;BME280;10039;42.632;23.408;2023-04-01T11:51:40;93625.03;;;15.13;56.77
19761;BME280;10039;42.632;23.408;2023-04-01T12:00:04;93667.09;;;13.84;66.24
19761;BME280;10039;42.632;23.408;2023-04-01T12:19:14;93734.22;;;12.99;72.55
19761;BME280;10039;42.632;23.408;2023-04-01T12:28:00;93710.44;;;13.16;74.31
19761;BME280;10039;42.632;23.408;2023-04-01T12:30:58;93667.91;;;12.85;74.19
19761;BME280;10039;42.632;23.408;2023-04-01T12:36:49;93666.94;;;12.74;73.79
19761;BME280;10039;42.632;23.408;2023-04-01T12:56:35;93723.00;;;12.45;78.20
19761;BME280;10039;42.632;23.408;2023-04-01T12:59:40;93733.09;;;12.50;78.00
19761;BME280;10039;42.632;23.408;2023-04-01T13:03:02;93691.13;;;12.24;77.65
19761;BME280;10039;42.632;23.408;2023-04-01T13:17:34;93659.69;;;12.42;71.23
19761;BME280;10039;42.632;23.408;2023-04-01T13:28:47;93578.97;;;12.81;72.46
19761;BME280;10039;42.632;23.408;2023-04-01T13:45:24;93537.50;;;13.92;61.70
19761;BME280;10039;42.632;23.408;2023-04-01T14:01:37;93575.88;;;13.98;71.39
19761;BME280;10039;42.632;23.408;2023-04-01T14:09:59;93558.34;;;13.83;73.15
19761;BME280;10039;42.632;23.408;2023-04-01T14:20:38;93563.13;;;13.93;72.79
19761;BME280;10039;42.632;23.408;2023-04-01T14:28:59;93544.69;;;13.66;73.82
19761;BME280;10039;42.632;23.408;2023-04-01T14:34:45;93499.88;;;13.52;73.51
19761;BME280;10039;42.632;23.408;2023-04-01T14:40:16;93537.16;;;13.85;72.01
19761;BME280;10039;42.632;23.408;2023-04-01T14:42:55;93540.44;;;13.74;72.61
19761;BME280;10039;42.632;23.408;2023-04-01T14:45:29;93530.53;;;13.80;71.35
19761;BME280;10039;42.632;23.408;2023-04-01T14:48:17;93523.75;;;13.85;71.81
19761;BME280;10039;42.632;23.408;2023-04-01T14:50:51;93498.84;;;13.64;71.52
19761;BME280;10039;42.632;23.408;2023-04-01T14:57:25;93522.38;;;13.75;73.09
19761;BME280;10039;42.632;23.408;2023-04-01T15:00:15;93519.66;;;13.41;74.99
19761;BME280;10039;42.632;23.408;2023-04-01T15:03:01;93537.94;;;13.56;75.47
19761;BME280;10039;42.632;23.408;2023-04-01T15:17:54;93530.09;;;14.16;70.77
19761;BME280;10039;42.632;23.408;2023-04-01T15:23:56;93492.19;;;13.60;72.17
19761;BME280;10039;42.632;23.408;2023-04-01T15:26:47;93532.09;;;13.72;71.87
19761;BME280;10039;42.632;23.408;2023-04-01T15:32:16;93541.22;;;13.95;70.88
19761;BME280;10039;42.632;23.408;2023-04-01T15:40:34;93543.53;;;13.87;70.42
19761;BME280;10039;42.632;23.408;2023-04-01T15:43:12;93530.25;;;13.78;70.01
19761;BME280;10039;42.632;23.408;2023-04-01T15:45:48;93553.06;;;13.88;69.75
19761;BME280;10039;42.632;23.408;2023-04-01T15:48:32;93571.63;;;14.06;69.50
19761;BME280;10039;42.632;23.408;2023-04-01T15:51:25;93558.13;;;13.86;70.54
19761;BME280;10039;42.632;23.408;2023-04-01T15:57:09;93643.31;;;13.48;72.67
19761;BME280;10039;42.632;23.408;2023-04-01T15:59:53;93730.31;;;12.68;66.98
19761;BME280;10039;42.632;23.408;2023-04-01T16:02:47;93698.53;;;11.69;65.94
19761;BME280;10039;42.632;23.408;2023-04-01T16:05:29;93771.31;;;11.55;68.40
19761;BME280;10039;42.632;23.408;2023-04-01T16:16:53;93811.84;;;9.84;77.44
19761;BME280;10039;42.632;23.408;2023-04-01T16:19:44;93839.94;;;10.19;77.77
19761;BME280;10039;42.632;23.408;2023-04-01T16:22:35;93841.53;;;9.95;79.71
19761;BME280;10039;42.632;23.408;2023-04-01T16:28:09;93866.75;;;10.15;80.30
19761;BME280;10039;42.632;23.408;2023-04-01T16:36:34;93855.63;;;10.38;79.16
19761;BME280;10039;42.632;23.408;2023-04-01T16:39:37;93861.34;;;10.28;79.82
19761;BME280;10039;42.632;23.408;2023-04-01T16:48:07;93862.06;;;10.28;78.20
19761;BME280;10039;42.632;23.408;2023-04-01T16:51:04;93859.38;;;10.19;77.34
19761;BME280;10039;42.632;23.408;2023-04-01T16:54:02;93867.38;;;10.19;77.88
19761;BME280;10039;42.632;23.408;2023-04-01T16:57:03;93838.16;;;10.16;78.15
19761;BME280;10039;42.632;23.408;2023-04-01T16:59:37;93837.38;;;9.94;77.79
19761;BME280;10039;42.632;23.408;2023-04-01T17:04:43;93826.47;;;9.80;77.09
19761;BME280;10039;42.632;23.408;2023-04-01T17:07:43;93802.84;;;9.48;77.52
19761;BME280;10039;42.632;23.408;2023-04-01T17:10:51;93820.94;;;9.40;77.75
19761;BME280;10039;42.632;23.408;2023-04-01T17:19:46;93877.97;;;9.77;77.53
19761;BME280;10039;42.632;23.408;2023-04-01T17:22:55;93902.13;;;9.82;76.44
19761;BME280;10039;42.632;23.408;2023-04-01T17:30:26;93907.94;;;9.90;75.18
19761;BME280;10039;42.632;23.408;2023-04-01T18:01:28;93944.91;;;10.55;71.82
19761;BME280;10039;42.632;23.408;2023-04-01T18:11:25;93965.84;;;9.89;72.85
19761;BME280;10039;42.632;23.408;2023-04-01T18:17:55;93978.91;;;9.62;75.33
19761;BME280;10039;42.632;23.408;2023-04-01T18:20:44;93990.59;;;9.77;74.89
19761;BME280;10039;42.632;23.408;2023-04-01T18:23:39;93984.72;;;9.82;74.17
19761;BME280;10039;42.632;23.408;2023-04-01T18:26:18;93966.31;;;9.63;74.10
19761;BME280;10039;42.632;23.408;2023-04-01T18:32:12;93961.38;;;9.86;73.72
19761;BME280;10039;42.632;23.408;2023-04-01T18:36:03;93961.59;;;9.79;72.74
19761;BME280;10039;42.632;23.408;2023-04-01T18:37:59;93975.41;;;9.99;72.23
19761;BME280;10039;42.632;23.408;2023-04-01T19:13:15;94024.50;;;9.52;75.73
19761;BME280;10039;42.632;23.408;2023-04-01T19:18:49;94037.28;;;9.44;75.49
19761;BME280;10039;42.632;23.408;2023-04-01T19:21:37;94021.19;;;9.73;74.94
19761;BME280;10039;42.632;23.408;2023-04-01T19:24:42;94039.69;;;9.89;73.81
19761;BME280;10039;42.632;23.408;2023-04-01T19:27:52;94029.69;;;10.05;72.55
19761;BME280;10039;42.632;23.408;2023-04-01T19:45:03;94061.00;;;9.89;69.69
19761;BME280;10039;42.632;23.408;2023-04-01T20:00:45;94042.94;;;9.71;69.60
19761;BME280;10039;42.632;23.408;2023-04-01T20:03:36;94081.94;;;10.02;69.47
19761;BME280;10039;42.632;23.408;2023-04-01T20:18:02;94042.16;;;10.08;67.71
19761;BME280;10039;42.632;23.408;2023-04-01T20:20:31;94022.13;;;9.91;67.44
19761;BME280;10039;42.632;23.408;2023-04-01T20:26:12;94032.47;;;10.02;66.17
19761;BME280;10039;42.632;23.408;2023-04-01T20:50:44;94024.59;;;9.23;64.01
19761;BME280;10039;42.632;23.408;2023-04-01T21:00:19;94076.59;;;9.90;64.48
19761;BME280;10039;42.632;23.408;2023-04-01T21:07:01;94050.59;;;9.57;64.44
19761;BME280;10039;42.632;23.408;2023-04-01T21:26:47;94090.34;;;9.76;63.56
19761;BME280;10039;42.632;23.408;2023-04-01T21:29:39;94102.81;;;9.79;63.32
19761;BME280;10039;42.632;23.408;2023-04-01T21:32:19;94094.16;;;9.75;63.18
19761;BME280;10039;42.632;23.408;2023-04-01T21:34:55;94096.09;;;9.87;63.63
19761;BME280;10039;42.632;23.408;2023-04-01T22:09:21;94052.06;;;9.58;65.72
19761;BME280;10039;42.632;23.408;2023-04-01T22:12:04;94104.22;;;9.84;66.88
19761;BME280;10039;42.632;23.408;2023-04-01T22:14:52;94102.47;;;9.77;66.83
19761;BME280;10039;42.632;23.408;2023-04-01T22:17:59;94071.03;;;9.60;66.92
19761;BME280;10039;42.632;23.408;2023-04-01T22:31:32;94038.44;;;9.43;66.49
19761;BME280;10039;42.632;23.408;2023-04-01T22:34:38;94092.16;;;9.79;67.12
19761;BME280;10039;42.632;23.408;2023-04-01T22:37:35;94078.09;;;9.66;66.81
19761;BME280;10039;42.632;23.408;2023-04-01T22:43:00;94062.00;;;9.57;67.01
19761;BME280;10039;42.632;23.408;2023-04-01T22:48:23;94083.38;;;9.29;68.22
19761;BME280;10039;42.632;23.408;2023-04-01T22:51:02;94055.31;;;8.99;68.49
19761;BME280;10039;42.632;23.408;2023-04-01T22:56:27;94063.47;;;8.80;67.98
19761;BME280;10039;42.632;23.408;2023-04-01T23:01:49;94102.28;;;9.06;64.84
19761;BME280;10039;42.632;23.408;2023-04-01T23:04:17;94085.44;;;8.96;64.49
19761;BME280;10039;42.632;23.408;2023-04-01T23:07:14;94091.41;;;9.00;63.68
19761;BME280;10039;42.632;23.408;2023-04-01T23:09:47;94080.44;;;8.98;63.68
19761;BME280;10039;42.632;23.408;2023-04-01T23:12:18;94081.53;;;9.13;62.97
19761;BME280;10039;42.632;23.408;2023-04-01T23:14:57;94064.28;;;9.05;62.58
19761;BME280;10039;42.632;23.408;2023-04-01T23:20:11;94105.34;;;9.45;62.60
19761;BME280;10039;42.632;23.408;2023-04-01T23:35:58;94127.41;;;9.58;61.49
19761;BME280;10039;42.632;23.408;2023-04-01T23:38:37;94089.00;;;9.18;60.33
19761;BME280;10039;42.632;23.408;2023-04-01T23:41:04;94094.13;;;9.25;60.55
19761;BME280;10039;42.632;23.408;2023-04-01T23:43:37;94125.28;;;9.53;60.98
19761;BME280;10039;42.632;23.408;2023-04-01T23:46:12;94120.25;;;9.43;60.60
19761;BME280;10039;42.632;23.408;2023-04-01T23:48:44;94091.78;;;9.27;61.26
19761;BME280;10039;42.632;23.408;2023-04-01T23:51:23;94118.91;;;9.63;61.99
19761;BME280;10039;42.632;23.408;2023-04-01T23:54:13;94124.75;;;9.71;62.41
19761;BME280;10039;42.632;23.408;2023-04-01T23:57:04;94155.03;;;9.89;62.18
19761;BME280;10039;42.632;23.408;2023-04-01T23:59:33;94094.16;;;9.50;61.56
